Maersk Essen — V7UQ8 — position and weather

sailwx.info

Track history (hours):
 
Tides and Currents Weather Stations Pressure Air Temp Water Temp Dewpoint Dewpoint Depression Visibility Wind Speed Wind Dir Waves Ship Positions

Maersk Essen

Last reported at 2014-Oct-30 15:33 UTC. Time now 2014-Oct-31 04:08 UTC.
Position N 36°26' E 014°29'.

Length 367 m; draft 13.9 m.

Type: Ship (hazmat cat A). MMSI: 538004007.

Date/timePositionNaut miles runAvg speedWind from/ knotsBaromVisibWave heightAir tempDewpointWater temp
2014-Oct-30 15:33N 36°26' E 014°29'2020.4
2014-Oct-30 14:33N 36°32' E 014°04'2019.9
2014-Oct-30 13:34N 36°37' E 013°40'62219.8
2014-Oct-29 06:11N 36°51' E 000°45'29119.9
2014-Oct-28 15:32N 35°59' W 005°11'7518.0
2014-Oct-28 11:21N 36°01' W 006°44'3418.9
2014-Oct-28 09:33N 36°10' W 007°24'1918.9
2014-Oct-28 08:33N 36°15' W 007°47'2119.3
2014-Oct-28 07:27N 36°21' W 008°13'1819.4
2014-Oct-28 06:33N 36°25' W 008°34'2119.4
2014-Oct-28 05:29N 36°31' W 008°58'1818.9
2014-Oct-28 04:33N 36°37' W 009°19'1918.8
2014-Oct-28 03:33N 36°51' W 009°34'1919.2
2014-Oct-28 02:33N 37°10' W 009°38'1919.4
2014-Oct-28 01:33N 37°29' W 009°44'1919.3
2014-Oct-28 00:33N 37°47' W 009°50'2019.5
2014-Oct-27 23:33N 38°07' W 009°56'1919.3
2014-Oct-27 22:33N 38°26' W 010°00'1919.2
2014-Oct-27 21:33N 38°44' W 010°05'2019.8
2014-Oct-27 20:33N 39°04' W 010°06'41518.9
2014-Oct-26 22:34N 45°51' W 008°14'1919.2
2014-Oct-26 21:33N 46°07' W 007°59'4819.1
2014-Oct-26 19:04N 46°49' W 007°27'24518.1
2014-Oct-26 05:33N 49°50' W 003°19'1918.6
2014-Oct-26 04:33N 49°58' W 002°52'7521.7
2014-Oct-26 01:05N 50°18' W 000°59'2919.3
2014-Oct-25 23:33N 50°27' W 000°15'1817.8
2014-Oct-25 22:33N 50°32' E 000°12'1717.0
2014-Oct-25 21:34N 50°36' E 000°38'1818.1
2014-Oct-25 20:33N 50°46' E 001°02'2020.5
2014-Oct-25 19:33N 51°00' E 001°25'2121.1
2014-Oct-25 18:33N 51°16' E 001°48'1818.4
2014-Oct-25 17:33N 51°34' E 001°49'1716.9
2014-Oct-25 16:34N 51°50' E 001°41'9 9.0
2014-Oct-25 15:34N 51°56' E 001°30'8 8.0
2014-Oct-25 14:33N 51°58' E 001°17'0 0.0
2014-Oct-25 13:33N 51°58' E 001°17'0 0.0
2014-Oct-25 12:33N 51°58' E 001°17'0 0.0
2014-Oct-25 11:33N 51°58' E 001°17'0 0.0
2014-Oct-25 10:33N 51°58' E 001°17'0 0.0
2014-Oct-25 09:33N 51°58' E 001°17'0 0.0
2014-Oct-25 08:33N 51°58' E 001°17'0 0.0
2014-Oct-25 07:33N 51°58' E 001°17'0 0.0
2014-Oct-25 06:33N 51°58' E 001°17'0 0.0
2014-Oct-25 05:33N 51°58' E 001°17'0 0.0
2014-Oct-25 04:33N 51°58' E 001°17'0 0.0
2014-Oct-25 03:33N 51°58' E 001°17'0 0.0
2014-Oct-25 02:33N 51°58' E 001°17'0 0.0
2014-Oct-25 01:33N 51°58' E 001°17'0 0.0
2014-Oct-25 00:33N 51°58' E 001°17'0 0.0
2014-Oct-24 23:33N 51°58' E 001°17'0 0.0
2014-Oct-24 22:33N 51°58' E 001°17'0 0.0
2014-Oct-24 21:33N 51°58' E 001°17'0 0.0
2014-Oct-24 20:33N 51°58' E 001°17'0 0.0
2014-Oct-24 19:33N 51°58' E 001°17'0 0.0
2014-Oct-24 18:33N 51°58' E 001°17'0 0.0
2014-Oct-24 17:33N 51°58' E 001°17'0 0.0
2014-Oct-24 16:33N 51°58' E 001°17'0 0.0
2014-Oct-24 15:33N 51°58' E 001°17'0 0.0
2014-Oct-24 14:33N 51°58' E 001°17'0 0.0
2014-Oct-24 13:33N 51°58' E 001°17'0 0.0
2014-Oct-24 12:33N 51°58' E 001°17'0 0.0
2014-Oct-24 11:33N 51°58' E 001°17'0 0.0
2014-Oct-24 10:33N 51°58' E 001°17'0 0.0
2014-Oct-24 09:33N 51°58' E 001°17'0 0.4
2014-Oct-24 08:33N 51°58' E 001°18'7 6.8
2014-Oct-24 07:33N 51°56' E 001°28'1010.5
2014-Oct-24 06:34N 51°51' E 001°43'1515.0
2014-Oct-24 05:34N 51°37' E 001°52'1919.0
2014-Oct-24 04:33N 51°22' E 002°11'1817.6
2014-Oct-24 03:33N 51°23' E 002°39'1414.1
2014-Oct-24 02:33N 51°25' E 003°02'1515.3
2014-Oct-24 01:33N 51°25' E 003°26'1010.0
2014-Oct-24 00:33N 51°25' E 003°43'9 9.1
2014-Oct-23 23:34N 51°23' E 003°57'7 7.2
2014-Oct-23 22:34N 51°22' E 004°08'7 6.6
2014-Oct-23 21:34N 51°18' E 004°16'1 0.7
2014-Oct-23 20:27N 51°18' E 004°15'0 0.0
2014-Oct-23 19:34N 51°18' E 004°16'0 0.0
2014-Oct-23 18:33N 51°18' E 004°16'0 0.0
2014-Oct-23 17:33N 51°18' E 004°15'0 0.0
2014-Oct-23 16:33N 51°18' E 004°15'0 0.0
2014-Oct-23 15:33N 51°18' E 004°15'0 0.0
2014-Oct-23 14:24N 51°18' E 004°15'0 0.0
2014-Oct-23 13:33N 51°18' E 004°15'0 0.0
2014-Oct-23 12:30N 51°18' E 004°15'0 0.0
2014-Oct-23 11:33N 51°18' E 004°15'0 0.0
2014-Oct-23 10:34N 51°18' E 004°16'0 0.0
2014-Oct-23 09:33N 51°18' E 004°15'0 0.0
2014-Oct-23 08:33N 51°18' E 004°15'0 0.0
2014-Oct-23 07:33N 51°18' E 004°15'0 0.0
2014-Oct-23 06:33N 51°18' E 004°15'0 0.0
2014-Oct-23 05:33N 51°18' E 004°16'0 0.0
2014-Oct-23 04:33N 51°18' E 004°16'0 0.0
2014-Oct-23 03:33N 51°18' E 004°16'0 0.0
2014-Oct-23 02:33N 51°18' E 004°15'0 0.0
2014-Oct-23 01:33N 51°18' E 004°16'0 0.0
2014-Oct-23 00:33N 51°18' E 004°16'0 0.0
2014-Oct-22 23:33N 51°18' E 004°15'0 0.0
2014-Oct-22 22:34N 51°18' E 004°16'2 1.5
2014-Oct-22 21:34N 51°19' E 004°16'6 6.2
2014-Oct-22 20:33N 51°22' E 004°08'7 6.9
2014-Oct-22 19:34N 51°23' E 003°57'1010.0
2014-Oct-22 18:33N 51°26' E 003°41'1111.2
2014-Oct-22 17:34N 51°24' E 003°23'1414.1
2014-Oct-22 16:33N 51°25' E 003°01'1413.7
2014-Oct-22 15:32N 51°37' E 003°11'1211.8
2014-Oct-22 14:33N 51°49' E 003°12'1 1.0
2014-Oct-22 13:33N 51°48' E 003°12'3 3.3
2014-Oct-22 12:29N 51°44' E 003°11'4 4.4
2014-Oct-22 11:33N 51°41' E 003°07'2 2.1
2014-Oct-22 10:30N 51°43' E 003°04'2 2.1
2014-Oct-22 09:33N 51°44' E 003°02'1 1.4
2014-Oct-22 08:33N 51°44' E 002°60'1 1.3
2014-Oct-22 07:33N 51°45' E 003°01'5 4.3
2014-Oct-22 06:27N 51°44' E 003°08'4 4.8
2014-Oct-22 05:33N 51°47' E 003°14'3 2.3
2014-Oct-22 04:27N 51°49' E 003°12'2 2.2
2014-Oct-22 03:29N 51°48' E 003°15'1 1.2
2014-Oct-22 02:20N 51°49' E 003°16'2 2.4
2014-Oct-22 01:31N 51°51' E 003°17'7 7.6
2014-Oct-22 00:33N 51°58' E 003°20'1514.4
2014-Oct-21 23:32N 52°11' E 003°30'1514.8
2014-Oct-21 22:30N 52°25' E 003°40'1514.6
2014-Oct-21 21:29N 52°38' E 003°51'1615.7
2014-Oct-21 20:29N 52°53' E 003°59'1515.6
2014-Oct-21 19:33N 53°05' E 004°14'1515.6
2014-Oct-21 18:33N 53°17' E 004°29'1414.2
2014-Oct-21 17:33N 53°29' E 004°41'1413.4
2014-Oct-21 16:33N 53°35' E 005°02'1212.4
2014-Oct-21 15:33N 53°39' E 005°22'1313.1
2014-Oct-21 14:33N 53°43' E 005°43'1413.9
2014-Oct-21 13:34N 53°47' E 006°05'1514.3
2014-Oct-21 12:29N 53°51' E 006°30'3314.2
2014-Oct-21 10:10N 53°59' E 007°24'913.8
2014-Oct-21 09:29N 54°01' E 007°40'1313.9
2014-Oct-21 08:33N 54°01' E 008°02'1313.2
2014-Oct-21 07:33N 53°59' E 008°24'1313.5
2014-Oct-21 06:33N 53°52' E 008°44'1615.5
2014-Oct-21 05:33N 53°53' E 009°10'1514.7
2014-Oct-21 04:33N 53°43' E 009°29'1312.6
2014-Oct-21 03:34N 53°34' E 009°43'8 7.5
2014-Oct-21 02:33N 53°32' E 009°55'0 0.0
2014-Oct-21 01:32N 53°32' E 009°55'0 0.0
2014-Oct-21 00:32N 53°32' E 009°55'0 0.0
2014-Oct-20 23:29N 53°32' E 009°55'0 0.0
2014-Oct-20 22:26N 53°32' E 009°55'0 0.0
2014-Oct-20 21:29N 53°32' E 009°55'0 0.0
2014-Oct-20 20:32N 53°32' E 009°55'0 0.0
2014-Oct-20 19:29N 53°32' E 009°55'0 0.0
2014-Oct-20 18:32N 53°32' E 009°55'0 0.0
2014-Oct-20 17:32N 53°32' E 009°55'0 0.0
2014-Oct-20 16:29N 53°32' E 009°55'  
Track history (hours):
 
Tides and Currents Weather Stations Pressure Air Temp Water Temp Dewpoint Dewpoint Depression Visibility Wind Speed Wind Dir Waves Ship Positions

Maersk Essen

Last reported at 2014-Oct-30 15:33 UTC. Time now 2014-Oct-31 04:08 UTC.
Position N 36°26' E 014°29'.

Length 367 m; draft 13.9 m.

Type: Ship (hazmat cat A). MMSI: 538004007.

Date/timePositionNaut miles runAvg speedWind from/ knotsBaromVisibWave heightAir tempDewpointWater temp
2014-Oct-30 15:33N 36°26' E 014°29'2020.4
2014-Oct-30 14:33N 36°32' E 014°04'2019.9
2014-Oct-30 13:34N 36°37' E 013°40'62219.8
2014-Oct-29 06:11N 36°51' E 000°45'29119.9
2014-Oct-28 15:32N 35°59' W 005°11'7518.0
2014-Oct-28 11:21N 36°01' W 006°44'3418.9
2014-Oct-28 09:33N 36°10' W 007°24'1918.9
2014-Oct-28 08:33N 36°15' W 007°47'2119.3
2014-Oct-28 07:27N 36°21' W 008°13'1819.4
2014-Oct-28 06:33N 36°25' W 008°34'2119.4
2014-Oct-28 05:29N 36°31' W 008°58'1818.9
2014-Oct-28 04:33N 36°37' W 009°19'1918.8
2014-Oct-28 03:33N 36°51' W 009°34'1919.2
2014-Oct-28 02:33N 37°10' W 009°38'1919.4
2014-Oct-28 01:33N 37°29' W 009°44'1919.3
2014-Oct-28 00:33N 37°47' W 009°50'2019.5
2014-Oct-27 23:33N 38°07' W 009°56'1919.3
2014-Oct-27 22:33N 38°26' W 010°00'1919.2
2014-Oct-27 21:33N 38°44' W 010°05'2019.8
2014-Oct-27 20:33N 39°04' W 010°06'41518.9
2014-Oct-26 22:34N 45°51' W 008°14'1919.2
2014-Oct-26 21:33N 46°07' W 007°59'4819.1
2014-Oct-26 19:04N 46°49' W 007°27'24518.1
2014-Oct-26 05:33N 49°50' W 003°19'1918.6
2014-Oct-26 04:33N 49°58' W 002°52'7521.7
2014-Oct-26 01:05N 50°18' W 000°59'2919.3
2014-Oct-25 23:33N 50°27' W 000°15'1817.8
2014-Oct-25 22:33N 50°32' E 000°12'1717.0
2014-Oct-25 21:34N 50°36' E 000°38'1818.1
2014-Oct-25 20:33N 50°46' E 001°02'2020.5
2014-Oct-25 19:33N 51°00' E 001°25'2121.1
2014-Oct-25 18:33N 51°16' E 001°48'1818.4
2014-Oct-25 17:33N 51°34' E 001°49'1716.9
2014-Oct-25 16:34N 51°50' E 001°41'9 9.0
2014-Oct-25 15:34N 51°56' E 001°30'8 8.0
2014-Oct-25 14:33N 51°58' E 001°17'0 0.0
2014-Oct-25 13:33N 51°58' E 001°17'0 0.0
2014-Oct-25 12:33N 51°58' E 001°17'0 0.0
2014-Oct-25 11:33N 51°58' E 001°17'0 0.0
2014-Oct-25 10:33N 51°58' E 001°17'0 0.0
2014-Oct-25 09:33N 51°58' E 001°17'0 0.0
2014-Oct-25 08:33N 51°58' E 001°17'0 0.0
2014-Oct-25 07:33N 51°58' E 001°17'0 0.0
2014-Oct-25 06:33N 51°58' E 001°17'0 0.0
2014-Oct-25 05:33N 51°58' E 001°17'0 0.0
2014-Oct-25 04:33N 51°58' E 001°17'0 0.0
2014-Oct-25 03:33N 51°58' E 001°17'0 0.0
2014-Oct-25 02:33N 51°58' E 001°17'0 0.0
2014-Oct-25 01:33N 51°58' E 001°17'0 0.0
2014-Oct-25 00:33N 51°58' E 001°17'0 0.0
2014-Oct-24 23:33N 51°58' E 001°17'0 0.0
2014-Oct-24 22:33N 51°58' E 001°17'0 0.0
2014-Oct-24 21:33N 51°58' E 001°17'0 0.0
2014-Oct-24 20:33N 51°58' E 001°17'0 0.0
2014-Oct-24 19:33N 51°58' E 001°17'0 0.0
2014-Oct-24 18:33N 51°58' E 001°17'0 0.0
2014-Oct-24 17:33N 51°58' E 001°17'0 0.0
2014-Oct-24 16:33N 51°58' E 001°17'0 0.0
2014-Oct-24 15:33N 51°58' E 001°17'0 0.0
2014-Oct-24 14:33N 51°58' E 001°17'0 0.0
2014-Oct-24 13:33N 51°58' E 001°17'0 0.0
2014-Oct-24 12:33N 51°58' E 001°17'0 0.0
2014-Oct-24 11:33N 51°58' E 001°17'0 0.0
2014-Oct-24 10:33N 51°58' E 001°17'0 0.0
2014-Oct-24 09:33N 51°58' E 001°17'0 0.4
2014-Oct-24 08:33N 51°58' E 001°18'7 6.8
2014-Oct-24 07:33N 51°56' E 001°28'1010.5
2014-Oct-24 06:34N 51°51' E 001°43'1515.0
2014-Oct-24 05:34N 51°37' E 001°52'1919.0
2014-Oct-24 04:33N 51°22' E 002°11'1817.6
2014-Oct-24 03:33N 51°23' E 002°39'1414.1
2014-Oct-24 02:33N 51°25' E 003°02'1515.3
2014-Oct-24 01:33N 51°25' E 003°26'1010.0
2014-Oct-24 00:33N 51°25' E 003°43'9 9.1
2014-Oct-23 23:34N 51°23' E 003°57'7 7.2
2014-Oct-23 22:34N 51°22' E 004°08'7 6.6
2014-Oct-23 21:34N 51°18' E 004°16'1 0.7
2014-Oct-23 20:27N 51°18' E 004°15'0 0.0
2014-Oct-23 19:34N 51°18' E 004°16'0 0.0
2014-Oct-23 18:33N 51°18' E 004°16'0 0.0
2014-Oct-23 17:33N 51°18' E 004°15'0 0.0
2014-Oct-23 16:33N 51°18' E 004°15'0 0.0
2014-Oct-23 15:33N 51°18' E 004°15'0 0.0
2014-Oct-23 14:24N 51°18' E 004°15'0 0.0
2014-Oct-23 13:33N 51°18' E 004°15'0 0.0
2014-Oct-23 12:30N 51°18' E 004°15'0 0.0
2014-Oct-23 11:33N 51°18' E 004°15'0 0.0
2014-Oct-23 10:34N 51°18' E 004°16'0 0.0
2014-Oct-23 09:33N 51°18' E 004°15'0 0.0
2014-Oct-23 08:33N 51°18' E 004°15'0 0.0
2014-Oct-23 07:33N 51°18' E 004°15'0 0.0
2014-Oct-23 06:33N 51°18' E 004°15'0 0.0
2014-Oct-23 05:33N 51°18' E 004°16'0 0.0
2014-Oct-23 04:33N 51°18' E 004°16'0 0.0
2014-Oct-23 03:33N 51°18' E 004°16'0 0.0
2014-Oct-23 02:33N 51°18' E 004°15'0 0.0
2014-Oct-23 01:33N 51°18' E 004°16'0 0.0
2014-Oct-23 00:33N 51°18' E 004°16'0 0.0
2014-Oct-22 23:33N 51°18' E 004°15'0 0.0
2014-Oct-22 22:34N 51°18' E 004°16'2 1.5
2014-Oct-22 21:34N 51°19' E 004°16'6 6.2
2014-Oct-22 20:33N 51°22' E 004°08'7 6.9
2014-Oct-22 19:34N 51°23' E 003°57'1010.0
2014-Oct-22 18:33N 51°26' E 003°41'1111.2
2014-Oct-22 17:34N 51°24' E 003°23'1414.1
2014-Oct-22 16:33N 51°25' E 003°01'1413.7
2014-Oct-22 15:32N 51°37' E 003°11'1211.8
2014-Oct-22 14:33N 51°49' E 003°12'1 1.0
2014-Oct-22 13:33N 51°48' E 003°12'3 3.3
2014-Oct-22 12:29N 51°44' E 003°11'4 4.4
2014-Oct-22 11:33N 51°41' E 003°07'2 2.1
2014-Oct-22 10:30N 51°43' E 003°04'2 2.1
2014-Oct-22 09:33N 51°44' E 003°02'1 1.4
2014-Oct-22 08:33N 51°44' E 002°60'1 1.3
2014-Oct-22 07:33N 51°45' E 003°01'5 4.3
2014-Oct-22 06:27N 51°44' E 003°08'4 4.8
2014-Oct-22 05:33N 51°47' E 003°14'3 2.3
2014-Oct-22 04:27N 51°49' E 003°12'2 2.2
2014-Oct-22 03:29N 51°48' E 003°15'1 1.2
2014-Oct-22 02:20N 51°49' E 003°16'2 2.4
2014-Oct-22 01:31N 51°51' E 003°17'7 7.6
2014-Oct-22 00:33N 51°58' E 003°20'1514.4
2014-Oct-21 23:32N 52°11' E 003°30'1514.8
2014-Oct-21 22:30N 52°25' E 003°40'1514.6
2014-Oct-21 21:29N 52°38' E 003°51'1615.7
2014-Oct-21 20:29N 52°53' E 003°59'1515.6
2014-Oct-21 19:33N 53°05' E 004°14'1515.6
2014-Oct-21 18:33N 53°17' E 004°29'1414.2
2014-Oct-21 17:33N 53°29' E 004°41'1413.4
2014-Oct-21 16:33N 53°35' E 005°02'1212.4
2014-Oct-21 15:33N 53°39' E 005°22'1313.1
2014-Oct-21 14:33N 53°43' E 005°43'1413.9
2014-Oct-21 13:34N 53°47' E 006°05'1514.3
2014-Oct-21 12:29N 53°51' E 006°30'3314.2
2014-Oct-21 10:10N 53°59' E 007°24'913.8
2014-Oct-21 09:29N 54°01' E 007°40'1313.9
2014-Oct-21 08:33N 54°01' E 008°02'1313.2
2014-Oct-21 07:33N 53°59' E 008°24'1313.5
2014-Oct-21 06:33N 53°52' E 008°44'1615.5
2014-Oct-21 05:33N 53°53' E 009°10'1514.7
2014-Oct-21 04:33N 53°43' E 009°29'1312.6
2014-Oct-21 03:34N 53°34' E 009°43'8 7.5
2014-Oct-21 02:33N 53°32' E 009°55'0 0.0
2014-Oct-21 01:32N 53°32' E 009°55'0 0.0
2014-Oct-21 00:32N 53°32' E 009°55'0 0.0
2014-Oct-20 23:29N 53°32' E 009°55'0 0.0
2014-Oct-20 22:26N 53°32' E 009°55'0 0.0
2014-Oct-20 21:29N 53°32' E 009°55'0 0.0
2014-Oct-20 20:32N 53°32' E 009°55'0 0.0
2014-Oct-20 19:29N 53°32' E 009°55'0 0.0
2014-Oct-20 18:32N 53°32' E 009°55'0 0.0
2014-Oct-20 17:32N 53°32' E 009°55'0 0.0
2014-Oct-20 16:29N 53°32' E 009°55'  

Dump ship's entire track history